Google Maps JavaScript API Example
Pilot Flight Report # 69728 Submitted by : AST332 on 2012-07-13
Date: 2012-07-13Aircraft: Cessna 182S Skylane
Flight No.: Not AvailableDistance (Nm): 177.36
Departure: FBMN - MaunDestination: FVFA - Victoria Falls
 TimeFuelWeightSpeeds  
Out (Taxi)1042Z276 lbs3327 lbs Flight RulesIFR
Off (Takeoff)1046Z 3326 lbs85 ktsFlight Level7500
On (Landing)1201Z 3204 lbs60 ktsVSTD-278 ft/min
In (Ramp)1203Z150 lbs3204 lbs ZFW3051 lbs
Flight1.30  -  1:15120 lbs  Pax0
Block1.35  -  1:21126 lbs  Cargo0
Departure WeatherFBMN 131041Z 33006KT 100SM SKC 26/9 A30
Destination WeatherFVFA 131203Z 18000KT 100SM FEW018 16/13 A2991
Flight Comments